sensor_id;sensor_type;location;lat;lon;timestamp;P1;durP1;ratioP1;P2;durP2;ratioP2
2299;SDS011;1158;48.750;9.078;2022-09-27T00:01:09;2.50;;;1.60;;
2299;SDS011;1158;48.750;9.078;2022-09-27T00:03:37;2.17;;;1.33;;
2299;SDS011;1158;48.750;9.078;2022-09-27T00:06:06;2.50;;;1.50;;
2299;SDS011;1158;48.750;9.078;2022-09-27T00:08:34;2.70;;;1.70;;
2299;SDS011;1158;48.750;9.078;2022-09-27T00:11:03;2.87;;;1.60;;
2299;SDS011;1158;48.750;9.078;2022-09-27T00:13:31;3.87;;;1.60;;
2299;SDS011;1158;48.750;9.078;2022-09-27T00:15:58;2.70;;;1.77;;
2299;SDS011;1158;48.750;9.078;2022-09-27T00:18:30;2.37;;;1.20;;
2299;SDS011;1158;48.750;9.078;2022-09-27T00:21:03;2.57;;;1.50;;
2299;SDS011;1158;48.750;9.078;2022-09-27T00:23:31;6.33;;;1.67;;
2299;SDS011;1158;48.750;9.078;2022-09-27T00:25:58;2.47;;;1.50;;
2299;SDS011;1158;48.750;9.078;2022-09-27T00:28:25;3.77;;;1.53;;
2299;SDS011;1158;48.750;9.078;2022-09-27T00:30:52;2.80;;;1.97;;
2299;SDS011;1158;48.750;9.078;2022-09-27T00:33:20;2.50;;;1.60;;
2299;SDS011;1158;48.750;9.078;2022-09-27T00:35:48;2.60;;;1.60;;
2299;SDS011;1158;48.750;9.078;2022-09-27T00:38:15;3.33;;;1.80;;
2299;SDS011;1158;48.750;9.078;2022-09-27T00:40:41;3.73;;;1.40;;
2299;SDS011;1158;48.750;9.078;2022-09-27T00:43:14;2.37;;;1.37;;
2299;SDS011;1158;48.750;9.078;2022-09-27T00:45:43;3.00;;;1.20;;
2299;SDS011;1158;48.750;9.078;2022-09-27T00:48:15;3.60;;;1.60;;
2299;SDS011;1158;48.750;9.078;2022-09-27T00:50:46;2.13;;;1.43;;
2299;SDS011;1158;48.750;9.078;2022-09-27T00:53:20;2.40;;;1.40;;
2299;SDS011;1158;48.750;9.078;2022-09-27T00:55:50;5.20;;;1.60;;
2299;SDS011;1158;48.750;9.078;2022-09-27T00:58:20;2.83;;;1.37;;
2299;SDS011;1158;48.750;9.078;2022-09-27T01:00:50;5.10;;;1.53;;
2299;SDS011;1158;48.750;9.078;2022-09-27T01:03:21;4.27;;;1.60;;
2299;SDS011;1158;48.750;9.078;2022-09-27T01:05:54;2.80;;;1.57;;
2299;SDS011;1158;48.750;9.078;2022-09-27T01:08:21;2.30;;;1.47;;
2299;SDS011;1158;48.750;9.078;2022-09-27T01:10:51;2.00;;;1.23;;
2299;SDS011;1158;48.750;9.078;2022-09-27T01:13:32;5.70;;;1.30;;
2299;SDS011;1158;48.750;9.078;2022-09-27T01:16:04;4.37;;;1.40;;
2299;SDS011;1158;48.750;9.078;2022-09-27T01:18:39;2.93;;;1.43;;
2299;SDS011;1158;48.750;9.078;2022-09-27T01:24:32;5.10;;;1.23;;
2299;SDS011;1158;48.750;9.078;2022-09-27T01:30:30;2.73;;;1.40;;
2299;SDS011;1158;48.750;9.078;2022-09-27T01:33:07;2.30;;;1.33;;
2299;SDS011;1158;48.750;9.078;2022-09-27T01:35:45;2.17;;;1.30;;
2299;SDS011;1158;48.750;9.078;2022-09-27T01:38:23;2.20;;;1.20;;
2299;SDS011;1158;48.750;9.078;2022-09-27T01:41:01;4.83;;;1.40;;
2299;SDS011;1158;48.750;9.078;2022-09-27T01:43:33;2.10;;;1.20;;
2299;SDS011;1158;48.750;9.078;2022-09-27T01:46:07;2.13;;;1.27;;
2299;SDS011;1158;48.750;9.078;2022-09-27T01:48:37;2.37;;;1.40;;
2299;SDS011;1158;48.750;9.078;2022-09-27T01:51:10;1.77;;;1.10;;
2299;SDS011;1158;48.750;9.078;2022-09-27T01:53:41;2.83;;;1.30;;
2299;SDS011;1158;48.750;9.078;2022-09-27T01:56:12;1.80;;;1.00;;
2299;SDS011;1158;48.750;9.078;2022-09-27T01:58:43;2.10;;;1.20;;
2299;SDS011;1158;48.750;9.078;2022-09-27T02:01:17;1.70;;;1.17;;
2299;SDS011;1158;48.750;9.078;2022-09-27T02:03:46;4.90;;;1.33;;
2299;SDS011;1158;48.750;9.078;2022-09-27T02:06:15;2.20;;;1.27;;
2299;SDS011;1158;48.750;9.078;2022-09-27T02:08:47;6.63;;;1.80;;
2299;SDS011;1158;48.750;9.078;2022-09-27T02:11:17;3.07;;;1.30;;
2299;SDS011;1158;48.750;9.078;2022-09-27T02:13:45;2.13;;;1.20;;
2299;SDS011;1158;48.750;9.078;2022-09-27T02:16:21;2.93;;;1.40;;
2299;SDS011;1158;48.750;9.078;2022-09-27T02:18:55;1.90;;;1.23;;
2299;SDS011;1158;48.750;9.078;2022-09-27T02:21:31;3.00;;;1.30;;
2299;SDS011;1158;48.750;9.078;2022-09-27T02:24:05;4.57;;;1.30;;
2299;SDS011;1158;48.750;9.078;2022-09-27T02:26:37;2.50;;;1.50;;
2299;SDS011;1158;48.750;9.078;2022-09-27T02:29:08;3.07;;;1.30;;
2299;SDS011;1158;48.750;9.078;2022-09-27T02:31:39;1.80;;;1.20;;
2299;SDS011;1158;48.750;9.078;2022-09-27T02:34:06;2.20;;;1.17;;
2299;SDS011;1158;48.750;9.078;2022-09-27T02:36:37;4.77;;;1.00;;
2299;SDS011;1158;48.750;9.078;2022-09-27T02:39:03;6.30;;;1.37;;
2299;SDS011;1158;48.750;9.078;2022-09-27T02:41:30;2.43;;;1.07;;
2299;SDS011;1158;48.750;9.078;2022-09-27T02:43:58;5.63;;;1.43;;
2299;SDS011;1158;48.750;9.078;2022-09-27T02:52:13;1.77;;;1.00;;
2299;SDS011;1158;48.750;9.078;2022-09-27T02:54:52;3.10;;;0.90;;
2299;SDS011;1158;48.750;9.078;2022-09-27T02:57:27;1.77;;;1.20;;
2299;SDS011;1158;48.750;9.078;2022-09-27T03:00:02;5.80;;;1.27;;
2299;SDS011;1158;48.750;9.078;2022-09-27T03:02:36;2.33;;;1.07;;
2299;SDS011;1158;48.750;9.078;2022-09-27T03:05:10;2.90;;;1.00;;
2299;SDS011;1158;48.750;9.078;2022-09-27T03:07:42;3.23;;;1.10;;
2299;SDS011;1158;48.750;9.078;2022-09-27T03:10:14;1.93;;;0.80;;
2299;SDS011;1158;48.750;9.078;2022-09-27T03:12:42;2.27;;;0.80;;
2299;SDS011;1158;48.750;9.078;2022-09-27T03:15:09;2.03;;;1.10;;
2299;SDS011;1158;48.750;9.078;2022-09-27T03:17:37;2.47;;;1.07;;
2299;SDS011;1158;48.750;9.078;2022-09-27T03:20:04;5.10;;;2.03;;
2299;SDS011;1158;48.750;9.078;2022-09-27T03:22:31;2.20;;;1.23;;
2299;SDS011;1158;48.750;9.078;2022-09-27T03:24:58;2.43;;;1.43;;
2299;SDS011;1158;48.750;9.078;2022-09-27T03:27:25;2.00;;;1.20;;
2299;SDS011;1158;48.750;9.078;2022-09-27T03:29:52;6.20;;;1.43;;
2299;SDS011;1158;48.750;9.078;2022-09-27T03:32:18;2.60;;;1.60;;
2299;SDS011;1158;48.750;9.078;2022-09-27T03:34:46;3.43;;;1.33;;
2299;SDS011;1158;48.750;9.078;2022-09-27T03:37:13;4.23;;;1.50;;
2299;SDS011;1158;48.750;9.078;2022-09-27T03:39:40;2.30;;;1.10;;
2299;SDS011;1158;48.750;9.078;2022-09-27T03:42:06;3.70;;;1.40;;
2299;SDS011;1158;48.750;9.078;2022-09-27T03:44:33;4.73;;;2.10;;
2299;SDS011;1158;48.750;9.078;2022-09-27T03:47:00;3.93;;;1.90;;
2299;SDS011;1158;48.750;9.078;2022-09-27T03:49:27;5.40;;;2.20;;
2299;SDS011;1158;48.750;9.078;2022-09-27T03:51:55;4.33;;;1.80;;
2299;SDS011;1158;48.750;9.078;2022-09-27T03:54:22;5.37;;;2.20;;
2299;SDS011;1158;48.750;9.078;2022-09-27T03:56:49;4.53;;;2.30;;
2299;SDS011;1158;48.750;9.078;2022-09-27T03:59:16;6.63;;;2.93;;
2299;SDS011;1158;48.750;9.078;2022-09-27T04:01:43;13.60;;;3.20;;
2299;SDS011;1158;48.750;9.078;2022-09-27T04:04:10;8.40;;;2.73;;
2299;SDS011;1158;48.750;9.078;2022-09-27T04:06:36;6.07;;;2.47;;
2299;SDS011;1158;48.750;9.078;2022-09-27T04:09:04;9.80;;;2.87;;
2299;SDS011;1158;48.750;9.078;2022-09-27T04:11:31;7.07;;;2.70;;
2299;SDS011;1158;48.750;9.078;2022-09-27T04:13:58;9.90;;;3.67;;
2299;SDS011;1158;48.750;9.078;2022-09-27T04:16:25;13.33;;;3.50;;
2299;SDS011;1158;48.750;9.078;2022-09-27T04:18:52;6.07;;;2.80;;
2299;SDS011;1158;48.750;9.078;2022-09-27T04:21:19;7.40;;;3.37;;
2299;SDS011;1158;48.750;9.078;2022-09-27T04:23:46;10.97;;;3.13;;
2299;SDS011;1158;48.750;9.078;2022-09-27T04:26:14;7.17;;;3.00;;
2299;SDS011;1158;48.750;9.078;2022-09-27T04:28:41;13.73;;;3.10;;
2299;SDS011;1158;48.750;9.078;2022-09-27T04:31:08;5.90;;;3.03;;
2299;SDS011;1158;48.750;9.078;2022-09-27T04:33:35;21.23;;;3.40;;
2299;SDS011;1158;48.750;9.078;2022-09-27T04:36:01;11.77;;;2.63;;
2299;SDS011;1158;48.750;9.078;2022-09-27T04:38:46;13.67;;;3.63;;
2299;SDS011;1158;48.750;9.078;2022-09-27T04:41:14;9.37;;;3.50;;
2299;SDS011;1158;48.750;9.078;2022-09-27T04:43:41;8.53;;;3.07;;
2299;SDS011;1158;48.750;9.078;2022-09-27T04:46:07;9.20;;;3.30;;
2299;SDS011;1158;48.750;9.078;2022-09-27T04:48:34;11.63;;;3.40;;
2299;SDS011;1158;48.750;9.078;2022-09-27T04:51:01;8.40;;;2.80;;
2299;SDS011;1158;48.750;9.078;2022-09-27T04:53:28;7.90;;;3.17;;
2299;SDS011;1158;48.750;9.078;2022-09-27T04:55:55;6.57;;;2.73;;
2299;SDS011;1158;48.750;9.078;2022-09-27T04:58:24;7.97;;;2.87;;
2299;SDS011;1158;48.750;9.078;2022-09-27T05:00:51;11.43;;;3.47;;
2299;SDS011;1158;48.750;9.078;2022-09-27T05:03:19;8.63;;;3.40;;
2299;SDS011;1158;48.750;9.078;2022-09-27T05:05:46;7.20;;;2.70;;
2299;SDS011;1158;48.750;9.078;2022-09-27T05:08:13;4.27;;;2.80;;
2299;SDS011;1158;48.750;9.078;2022-09-27T05:10:40;4.60;;;2.70;;
2299;SDS011;1158;48.750;9.078;2022-09-27T05:13:06;6.60;;;3.00;;
2299;SDS011;1158;48.750;9.078;2022-09-27T05:15:34;6.17;;;3.10;;
2299;SDS011;1158;48.750;9.078;2022-09-27T05:18:01;11.90;;;3.63;;
2299;SDS011;1158;48.750;9.078;2022-09-27T05:20:28;6.30;;;3.17;;
2299;SDS011;1158;48.750;9.078;2022-09-27T05:22:54;4.80;;;2.43;;
2299;SDS011;1158;48.750;9.078;2022-09-27T05:25:21;5.27;;;2.30;;
2299;SDS011;1158;48.750;9.078;2022-09-27T05:27:48;6.87;;;2.83;;
2299;SDS011;1158;48.750;9.078;2022-09-27T05:30:15;4.60;;;2.70;;
2299;SDS011;1158;48.750;9.078;2022-09-27T05:32:44;3.63;;;2.20;;
2299;SDS011;1158;48.750;9.078;2022-09-27T05:35:12;7.70;;;2.50;;
2299;SDS011;1158;48.750;9.078;2022-09-27T05:37:39;5.30;;;2.43;;
2299;SDS011;1158;48.750;9.078;2022-09-27T05:40:06;6.13;;;2.50;;
2299;SDS011;1158;48.750;9.078;2022-09-27T05:42:34;6.83;;;2.30;;
2299;SDS011;1158;48.750;9.078;2022-09-27T05:45:03;4.40;;;2.23;;
2299;SDS011;1158;48.750;9.078;2022-09-27T05:47:31;10.57;;;2.30;;
2299;SDS011;1158;48.750;9.078;2022-09-27T05:49:59;6.93;;;2.50;;
2299;SDS011;1158;48.750;9.078;2022-09-27T05:52:25;7.60;;;2.80;;
2299;SDS011;1158;48.750;9.078;2022-09-27T05:54:52;8.00;;;4.90;;
2299;SDS011;1158;48.750;9.078;2022-09-27T05:57:19;8.67;;;2.97;;
2299;SDS011;1158;48.750;9.078;2022-09-27T05:59:46;10.57;;;3.17;;
2299;SDS011;1158;48.750;9.078;2022-09-27T06:02:12;9.50;;;2.60;;
2299;SDS011;1158;48.750;9.078;2022-09-27T06:04:39;7.23;;;2.33;;
2299;SDS011;1158;48.750;9.078;2022-09-27T06:07:07;10.30;;;3.17;;
2299;SDS011;1158;48.750;9.078;2022-09-27T06:09:34;4.50;;;2.70;;
2299;SDS011;1158;48.750;9.078;2022-09-27T06:12:01;6.10;;;2.53;;
2299;SDS011;1158;48.750;9.078;2022-09-27T06:14:27;3.87;;;2.07;;
2299;SDS011;1158;48.750;9.078;2022-09-27T06:16:54;6.43;;;2.10;;
2299;SDS011;1158;48.750;9.078;2022-09-27T06:19:22;2.70;;;1.50;;
2299;SDS011;1158;48.750;9.078;2022-09-27T06:21:49;2.17;;;1.40;;
2299;SDS011;1158;48.750;9.078;2022-09-27T06:24:17;7.03;;;1.93;;
2299;SDS011;1158;48.750;9.078;2022-09-27T06:26:43;2.77;;;1.80;;
2299;SDS011;1158;48.750;9.078;2022-09-27T06:29:10;3.80;;;1.43;;
2299;SDS011;1158;48.750;9.078;2022-09-27T06:31:37;2.80;;;1.10;;
2299;SDS011;1158;48.750;9.078;2022-09-27T06:34:03;3.50;;;1.50;;
2299;SDS011;1158;48.750;9.078;2022-09-27T06:36:32;2.60;;;1.27;;
2299;SDS011;1158;48.750;9.078;2022-09-27T06:38:59;3.00;;;1.47;;
2299;SDS011;1158;48.750;9.078;2022-09-27T06:41:27;3.17;;;1.73;;
2299;SDS011;1158;48.750;9.078;2022-09-27T06:43:53;2.53;;;1.40;;
2299;SDS011;1158;48.750;9.078;2022-09-27T06:46:21;1.93;;;1.17;;
2299;SDS011;1158;48.750;9.078;2022-09-27T06:48:47;4.00;;;1.40;;
2299;SDS011;1158;48.750;9.078;2022-09-27T06:51:14;3.77;;;1.57;;
2299;SDS011;1158;48.750;9.078;2022-09-27T06:53:41;2.60;;;1.20;;
2299;SDS011;1158;48.750;9.078;2022-09-27T06:56:08;2.87;;;1.80;;
2299;SDS011;1158;48.750;9.078;2022-09-27T06:58:36;2.80;;;1.40;;
2299;SDS011;1158;48.750;9.078;2022-09-27T07:01:20;2.67;;;1.20;;
2299;SDS011;1158;48.750;9.078;2022-09-27T07:03:48;4.53;;;1.30;;
2299;SDS011;1158;48.750;9.078;2022-09-27T07:06:16;3.10;;;1.43;;
2299;SDS011;1158;48.750;9.078;2022-09-27T07:08:44;3.70;;;1.03;;
2299;SDS011;1158;48.750;9.078;2022-09-27T07:11:15;2.33;;;1.10;;
2299;SDS011;1158;48.750;9.078;2022-09-27T07:13:43;2.83;;;0.90;;
2299;SDS011;1158;48.750;9.078;2022-09-27T07:16:10;1.43;;;0.80;;
2299;SDS011;1158;48.750;9.078;2022-09-27T07:18:38;1.63;;;0.80;;
2299;SDS011;1158;48.750;9.078;2022-09-27T07:21:05;1.60;;;1.10;;
2299;SDS011;1158;48.750;9.078;2022-09-27T07:23:32;2.40;;;1.10;;
2299;SDS011;1158;48.750;9.078;2022-09-27T07:26:00;6.87;;;4.10;;
2299;SDS011;1158;48.750;9.078;2022-09-27T07:28:28;2.00;;;1.00;;
2299;SDS011;1158;48.750;9.078;2022-09-27T07:30:57;2.03;;;0.90;;
2299;SDS011;1158;48.750;9.078;2022-09-27T07:33:23;1.57;;;0.87;;
2299;SDS011;1158;48.750;9.078;2022-09-27T07:35:51;2.10;;;1.00;;
2299;SDS011;1158;48.750;9.078;2022-09-27T07:38:17;2.83;;;0.97;;
2299;SDS011;1158;48.750;9.078;2022-09-27T07:40:44;2.10;;;0.80;;
2299;SDS011;1158;48.750;9.078;2022-09-27T07:43:11;2.00;;;1.10;;
2299;SDS011;1158;48.750;9.078;2022-09-27T07:45:38;2.03;;;1.03;;
2299;SDS011;1158;48.750;9.078;2022-09-27T07:48:06;1.67;;;0.90;;
2299;SDS011;1158;48.750;9.078;2022-09-27T07:50:35;1.70;;;0.90;;
2299;SDS011;1158;48.750;9.078;2022-09-27T07:53:02;1.50;;;0.80;;
2299;SDS011;1158;48.750;9.078;2022-09-27T07:55:29;3.93;;;1.00;;
2299;SDS011;1158;48.750;9.078;2022-09-27T07:58:02;1.70;;;0.93;;
2299;SDS011;1158;48.750;9.078;2022-09-27T08:00:31;1.80;;;0.90;;
2299;SDS011;1158;48.750;9.078;2022-09-27T08:02:58;1.67;;;0.83;;
2299;SDS011;1158;48.750;9.078;2022-09-27T08:05:32;1.67;;;1.00;;
2299;SDS011;1158;48.750;9.078;2022-09-27T08:07:59;2.70;;;1.10;;
2299;SDS011;1158;48.750;9.078;2022-09-27T08:10:27;2.17;;;0.97;;
2299;SDS011;1158;48.750;9.078;2022-09-27T08:12:55;3.60;;;1.00;;
2299;SDS011;1158;48.750;9.078;2022-09-27T08:15:22;3.03;;;0.97;;
2299;SDS011;1158;48.750;9.078;2022-09-27T08:17:49;1.63;;;0.80;;
2299;SDS011;1158;48.750;9.078;2022-09-27T08:20:16;1.93;;;1.10;;
2299;SDS011;1158;48.750;9.078;2022-09-27T08:22:44;1.90;;;1.07;;
2299;SDS011;1158;48.750;9.078;2022-09-27T08:25:10;1.80;;;1.00;;
2299;SDS011;1158;48.750;9.078;2022-09-27T08:27:38;4.70;;;0.93;;
2299;SDS011;1158;48.750;9.078;2022-09-27T08:30:05;1.80;;;1.03;;
2299;SDS011;1158;48.750;9.078;2022-09-27T08:32:32;1.97;;;0.87;;
2299;SDS011;1158;48.750;9.078;2022-09-27T08:35:00;1.77;;;0.90;;
2299;SDS011;1158;48.750;9.078;2022-09-27T08:37:27;2.53;;;1.00;;
2299;SDS011;1158;48.750;9.078;2022-09-27T08:39:55;2.80;;;1.10;;
2299;SDS011;1158;48.750;9.078;2022-09-27T08:42:25;1.93;;;1.13;;
2299;SDS011;1158;48.750;9.078;2022-09-27T08:45:05;7.53;;;1.00;;
2299;SDS011;1158;48.750;9.078;2022-09-27T08:47:37;4.90;;;1.07;;
2299;SDS011;1158;48.750;9.078;2022-09-27T08:50:09;1.50;;;0.90;;
2299;SDS011;1158;48.750;9.078;2022-09-27T08:52:45;1.67;;;0.87;;
2299;SDS011;1158;48.750;9.078;2022-09-27T08:55:20;1.50;;;0.90;;
2299;SDS011;1158;48.750;9.078;2022-09-27T08:57:54;2.57;;;1.00;;
2299;SDS011;1158;48.750;9.078;2022-09-27T09:00:22;2.37;;;0.80;;
2299;SDS011;1158;48.750;9.078;2022-09-27T09:02:50;2.73;;;1.00;;
2299;SDS011;1158;48.750;9.078;2022-09-27T09:05:19;2.13;;;1.10;;
2299;SDS011;1158;48.750;9.078;2022-09-27T09:08:04;1.83;;;1.03;;
2299;SDS011;1158;48.750;9.078;2022-09-27T09:10:43;3.57;;;1.20;;
2299;SDS011;1158;48.750;9.078;2022-09-27T09:13:37;2.70;;;0.90;;
2299;SDS011;1158;48.750;9.078;2022-09-27T09:16:22;2.13;;;1.00;;
2299;SDS011;1158;48.750;9.078;2022-09-27T09:19:04;1.77;;;1.03;;
2299;SDS011;1158;48.750;9.078;2022-09-27T09:21:45;2.73;;;0.80;;
2299;SDS011;1158;48.750;9.078;2022-09-27T09:24:21;1.60;;;0.90;;
2299;SDS011;1158;48.750;9.078;2022-09-27T09:26:58;2.40;;;1.13;;
2299;SDS011;1158;48.750;9.078;2022-09-27T09:29:37;3.47;;;1.10;;
2299;SDS011;1158;48.750;9.078;2022-09-27T09:32:20;1.40;;;0.80;;
2299;SDS011;1158;48.750;9.078;2022-09-27T09:34:56;1.60;;;1.00;;
2299;SDS011;1158;48.750;9.078;2022-09-27T09:37:32;3.10;;;1.10;;
2299;SDS011;1158;48.750;9.078;2022-09-27T09:40:04;2.67;;;1.37;;
2299;SDS011;1158;48.750;9.078;2022-09-27T09:42:43;2.00;;;1.10;;
2299;SDS011;1158;48.750;9.078;2022-09-27T09:45:16;3.03;;;1.37;;
2299;SDS011;1158;48.750;9.078;2022-09-27T09:47:47;2.30;;;1.20;;
2299;SDS011;1158;48.750;9.078;2022-09-27T09:50:20;2.67;;;1.30;;
2299;SDS011;1158;48.750;9.078;2022-09-27T09:52:52;2.47;;;1.13;;
2299;SDS011;1158;48.750;9.078;2022-09-27T09:55:23;2.53;;;1.33;;
2299;SDS011;1158;48.750;9.078;2022-09-27T09:58:00;2.30;;;1.30;;
2299;SDS011;1158;48.750;9.078;2022-09-27T10:00:35;2.40;;;0.90;;
2299;SDS011;1158;48.750;9.078;2022-09-27T10:03:03;4.07;;;2.00;;
2299;SDS011;1158;48.750;9.078;2022-09-27T10:05:30;3.73;;;1.30;;
2299;SDS011;1158;48.750;9.078;2022-09-27T10:07:58;3.73;;;1.40;;
2299;SDS011;1158;48.750;9.078;2022-09-27T10:10:27;3.53;;;1.43;;
2299;SDS011;1158;48.750;9.078;2022-09-27T10:12:54;3.43;;;1.30;;
2299;SDS011;1158;48.750;9.078;2022-09-27T10:15:24;7.10;;;1.43;;
2299;SDS011;1158;48.750;9.078;2022-09-27T10:17:55;2.20;;;1.30;;
2299;SDS011;1158;48.750;9.078;2022-09-27T10:20:26;3.77;;;1.40;;
2299;SDS011;1158;48.750;9.078;2022-09-27T10:22:57;3.00;;;1.37;;
2299;SDS011;1158;48.750;9.078;2022-09-27T10:25:36;3.80;;;1.30;;
2299;SDS011;1158;48.750;9.078;2022-09-27T10:28:24;2.50;;;1.33;;
2299;SDS011;1158;48.750;9.078;2022-09-27T10:30:58;3.70;;;1.40;;
2299;SDS011;1158;48.750;9.078;2022-09-27T10:33:27;3.50;;;1.30;;
2299;SDS011;1158;48.750;9.078;2022-09-27T10:35:55;4.43;;;1.50;;
2299;SDS011;1158;48.750;9.078;2022-09-27T10:38:24;2.23;;;1.40;;
2299;SDS011;1158;48.750;9.078;2022-09-27T10:40:53;4.20;;;1.73;;
2299;SDS011;1158;48.750;9.078;2022-09-27T10:43:25;4.47;;;1.50;;
2299;SDS011;1158;48.750;9.078;2022-09-27T10:46:06;3.17;;;1.70;;
2299;SDS011;1158;48.750;9.078;2022-09-27T10:48:39;3.13;;;1.23;;
2299;SDS011;1158;48.750;9.078;2022-09-27T10:51:15;2.43;;;1.70;;
2299;SDS011;1158;48.750;9.078;2022-09-27T10:53:47;5.10;;;1.40;;
2299;SDS011;1158;48.750;9.078;2022-09-27T10:56:19;4.53;;;1.43;;
2299;SDS011;1158;48.750;9.078;2022-09-27T10:58:48;4.17;;;1.47;;
2299;SDS011;1158;48.750;9.078;2022-09-27T11:01:17;5.60;;;1.53;;
2299;SDS011;1158;48.750;9.078;2022-09-27T11:03:45;4.53;;;1.50;;
2299;SDS011;1158;48.750;9.078;2022-09-27T11:06:18;2.40;;;1.50;;
2299;SDS011;1158;48.750;9.078;2022-09-27T11:08:53;2.93;;;1.50;;
2299;SDS011;1158;48.750;9.078;2022-09-27T11:11:23;5.47;;;1.57;;
2299;SDS011;1158;48.750;9.078;2022-09-27T11:13:57;3.80;;;1.30;;
2299;SDS011;1158;48.750;9.078;2022-09-27T11:16:31;2.37;;;1.63;;
2299;SDS011;1158;48.750;9.078;2022-09-27T11:19:17;7.70;;;1.63;;
2299;SDS011;1158;48.750;9.078;2022-09-27T11:21:58;3.03;;;1.50;;
2299;SDS011;1158;48.750;9.078;2022-09-27T11:24:37;2.10;;;1.30;;
2299;SDS011;1158;48.750;9.078;2022-09-27T11:27:17;2.40;;;1.10;;
2299;SDS011;1158;48.750;9.078;2022-09-27T11:29:56;2.50;;;1.20;;
2299;SDS011;1158;48.750;9.078;2022-09-27T11:32:35;2.30;;;1.30;;
2299;SDS011;1158;48.750;9.078;2022-09-27T11:35:25;3.83;;;1.30;;
2299;SDS011;1158;48.750;9.078;2022-09-27T11:38:07;5.47;;;1.13;;
2299;SDS011;1158;48.750;9.078;2022-09-27T11:40:46;2.80;;;1.13;;
2299;SDS011;1158;48.750;9.078;2022-09-27T11:43:34;2.70;;;1.00;;
2299;SDS011;1158;48.750;9.078;2022-09-27T11:46:22;3.80;;;1.23;;
2299;SDS011;1158;48.750;9.078;2022-09-27T11:48:59;2.20;;;1.10;;
2299;SDS011;1158;48.750;9.078;2022-09-27T11:52:02;2.03;;;1.10;;
2299;SDS011;1158;48.750;9.078;2022-09-27T11:54:48;3.37;;;1.27;;
2299;SDS011;1158;48.750;9.078;2022-09-27T11:57:29;1.77;;;0.90;;
2299;SDS011;1158;48.750;9.078;2022-09-27T12:00:13;2.07;;;1.07;;
2299;SDS011;1158;48.750;9.078;2022-09-27T12:02:57;2.33;;;0.97;;
2299;SDS011;1158;48.750;9.078;2022-09-27T12:05:47;2.17;;;1.20;;
2299;SDS011;1158;48.750;9.078;2022-09-27T12:08:42;8.23;;;2.00;;
2299;SDS011;1158;48.750;9.078;2022-09-27T12:11:20;4.13;;;1.53;;
2299;SDS011;1158;48.750;9.078;2022-09-27T12:13:51;6.70;;;1.43;;
2299;SDS011;1158;48.750;9.078;2022-09-27T12:16:20;2.40;;;1.17;;
2299;SDS011;1158;48.750;9.078;2022-09-27T12:18:49;9.53;;;2.17;;
2299;SDS011;1158;48.750;9.078;2022-09-27T12:21:19;2.27;;;1.00;;
2299;SDS011;1158;48.750;9.078;2022-09-27T12:23:48;3.00;;;1.30;;
2299;SDS011;1158;48.750;9.078;2022-09-27T12:26:17;4.27;;;1.00;;
2299;SDS011;1158;48.750;9.078;2022-09-27T12:28:50;2.67;;;1.20;;
2299;SDS011;1158;48.750;9.078;2022-09-27T12:31:20;3.50;;;1.37;;
2299;SDS011;1158;48.750;9.078;2022-09-27T12:33:55;3.40;;;1.70;;
2299;SDS011;1158;48.750;9.078;2022-09-27T12:36:29;2.40;;;1.03;;
2299;SDS011;1158;48.750;9.078;2022-09-27T12:39:00;3.60;;;1.10;;
2299;SDS011;1158;48.750;9.078;2022-09-27T12:41:33;1.50;;;0.80;;
2299;SDS011;1158;48.750;9.078;2022-09-27T12:44:03;1.67;;;0.90;;
2299;SDS011;1158;48.750;9.078;2022-09-27T12:46:32;2.60;;;0.90;;
2299;SDS011;1158;48.750;9.078;2022-09-27T12:49:09;3.37;;;1.23;;
2299;SDS011;1158;48.750;9.078;2022-09-27T12:51:42;2.80;;;1.00;;
2299;SDS011;1158;48.750;9.078;2022-09-27T12:54:22;2.50;;;0.93;;
2299;SDS011;1158;48.750;9.078;2022-09-27T12:57:10;1.87;;;1.00;;
2299;SDS011;1158;48.750;9.078;2022-09-27T13:00:01;2.10;;;0.90;;
2299;SDS011;1158;48.750;9.078;2022-09-27T13:05:50;1.50;;;0.80;;
2299;SDS011;1158;48.750;9.078;2022-09-27T13:08:51;2.80;;;1.20;;
2299;SDS011;1158;48.750;9.078;2022-09-27T13:11:39;1.70;;;0.90;;
2299;SDS011;1158;48.750;9.078;2022-09-27T13:14:14;1.47;;;0.87;;
2299;SDS011;1158;48.750;9.078;2022-09-27T13:16:44;2.37;;;1.00;;
2299;SDS011;1158;48.750;9.078;2022-09-27T13:22:06;2.50;;;1.10;;
2299;SDS011;1158;48.750;9.078;2022-09-27T13:24:40;10.73;;;1.10;;
2299;SDS011;1158;48.750;9.078;2022-09-27T13:33:21;2.87;;;1.27;;
2299;SDS011;1158;48.750;9.078;2022-09-27T13:39:01;2.03;;;1.13;;
2299;SDS011;1158;48.750;9.078;2022-09-27T13:42:00;2.17;;;1.10;;
2299;SDS011;1158;48.750;9.078;2022-09-27T13:44:37;2.40;;;1.27;;
2299;SDS011;1158;48.750;9.078;2022-09-27T13:47:24;1.93;;;1.00;;
2299;SDS011;1158;48.750;9.078;2022-09-27T13:49:58;4.47;;;1.10;;
2299;SDS011;1158;48.750;9.078;2022-09-27T13:52:38;2.27;;;1.03;;
2299;SDS011;1158;48.750;9.078;2022-09-27T13:58:11;3.20;;;1.90;;
2299;SDS011;1158;48.750;9.078;2022-09-27T14:00:57;3.20;;;1.53;;
2299;SDS011;1158;48.750;9.078;2022-09-27T14:03:27;2.47;;;1.37;;
2299;SDS011;1158;48.750;9.078;2022-09-27T14:05:56;2.30;;;1.10;;
2299;SDS011;1158;48.750;9.078;2022-09-27T14:08:26;3.20;;;1.10;;
2299;SDS011;1158;48.750;9.078;2022-09-27T14:10:56;2.60;;;1.07;;
2299;SDS011;1158;48.750;9.078;2022-09-27T14:13:26;3.60;;;1.10;;
2299;SDS011;1158;48.750;9.078;2022-09-27T14:15:55;2.30;;;1.27;;
2299;SDS011;1158;48.750;9.078;2022-09-27T14:18:26;1.83;;;1.00;;
2299;SDS011;1158;48.750;9.078;2022-09-27T14:20:54;2.20;;;1.20;;
2299;SDS011;1158;48.750;9.078;2022-09-27T14:23:36;1.70;;;1.00;;
2299;SDS011;1158;48.750;9.078;2022-09-27T14:26:02;2.40;;;1.20;;
2299;SDS011;1158;48.750;9.078;2022-09-27T14:28:38;1.70;;;1.13;;
2299;SDS011;1158;48.750;9.078;2022-09-27T14:31:10;2.20;;;1.17;;
2299;SDS011;1158;48.750;9.078;2022-09-27T14:33:41;1.73;;;0.93;;
2299;SDS011;1158;48.750;9.078;2022-09-27T14:36:14;2.33;;;1.33;;
2299;SDS011;1158;48.750;9.078;2022-09-27T14:39:14;1.77;;;1.07;;
2299;SDS011;1158;48.750;9.078;2022-09-27T14:41:45;1.87;;;1.13;;
2299;SDS011;1158;48.750;9.078;2022-09-27T14:44:15;2.30;;;1.20;;
2299;SDS011;1158;48.750;9.078;2022-09-27T14:46:44;2.70;;;1.20;;
2299;SDS011;1158;48.750;9.078;2022-09-27T14:49:18;1.70;;;1.10;;
2299;SDS011;1158;48.750;9.078;2022-09-27T14:51:50;2.10;;;1.13;;
2299;SDS011;1158;48.750;9.078;2022-09-27T14:54:19;1.60;;;0.80;;
2299;SDS011;1158;48.750;9.078;2022-09-27T14:56:49;2.13;;;1.00;;
2299;SDS011;1158;48.750;9.078;2022-09-27T14:59:25;3.73;;;0.90;;
2299;SDS011;1158;48.750;9.078;2022-09-27T15:01:56;1.50;;;0.90;;
2299;SDS011;1158;48.750;9.078;2022-09-27T15:04:26;1.80;;;1.00;;
2299;SDS011;1158;48.750;9.078;2022-09-27T15:06:55;1.83;;;0.77;;
2299;SDS011;1158;48.750;9.078;2022-09-27T15:09:23;1.80;;;0.70;;
2299;SDS011;1158;48.750;9.078;2022-09-27T15:11:52;1.70;;;0.80;;
2299;SDS011;1158;48.750;9.078;2022-09-27T15:14:24;4.77;;;1.07;;
2299;SDS011;1158;48.750;9.078;2022-09-27T15:16:53;2.90;;;1.70;;
2299;SDS011;1158;48.750;9.078;2022-09-27T15:19:21;2.30;;;0.83;;
2299;SDS011;1158;48.750;9.078;2022-09-27T15:21:49;2.40;;;0.70;;
2299;SDS011;1158;48.750;9.078;2022-09-27T15:24:35;2.47;;;0.90;;
2299;SDS011;1158;48.750;9.078;2022-09-27T15:27:03;1.90;;;0.80;;
2299;SDS011;1158;48.750;9.078;2022-09-27T15:29:39;2.50;;;1.00;;
2299;SDS011;1158;48.750;9.078;2022-09-27T15:32:06;1.97;;;1.00;;
2299;SDS011;1158;48.750;9.078;2022-09-27T15:34:39;3.53;;;1.27;;
2299;SDS011;1158;48.750;9.078;2022-09-27T15:37:06;1.50;;;0.90;;
2299;SDS011;1158;48.750;9.078;2022-09-27T15:39:50;2.23;;;0.90;;
2299;SDS011;1158;48.750;9.078;2022-09-27T15:42:17;2.13;;;1.03;;
2299;SDS011;1158;48.750;9.078;2022-09-27T15:44:46;2.60;;;0.90;;
2299;SDS011;1158;48.750;9.078;2022-09-27T15:53:02;3.20;;;1.20;;
2299;SDS011;1158;48.750;9.078;2022-09-27T15:55:31;2.90;;;1.10;;
2299;SDS011;1158;48.750;9.078;2022-09-27T15:58:01;2.17;;;0.70;;
2299;SDS011;1158;48.750;9.078;2022-09-27T16:00:31;3.73;;;1.20;;
2299;SDS011;1158;48.750;9.078;2022-09-27T16:02:58;3.70;;;1.03;;
2299;SDS011;1158;48.750;9.078;2022-09-27T16:05:25;3.03;;;1.00;;
2299;SDS011;1158;48.750;9.078;2022-09-27T16:07:53;3.23;;;1.00;;
2299;SDS011;1158;48.750;9.078;2022-09-27T16:10:23;2.87;;;1.20;;
2299;SDS011;1158;48.750;9.078;2022-09-27T16:12:54;3.13;;;1.40;;
2299;SDS011;1158;48.750;9.078;2022-09-27T16:15:20;4.50;;;1.00;;
2299;SDS011;1158;48.750;9.078;2022-09-27T16:17:49;5.77;;;1.40;;